createdAt,value
2018-05-06T00:02:09.928Z,102668.06
2018-05-06T00:04:37.332Z,102663.84
2018-05-06T00:07:04.748Z,102664.88
2018-05-06T00:09:32.157Z,102663.52
2018-05-06T00:11:59.565Z,102661.20
2018-05-06T00:14:26.972Z,102666.63
2018-05-06T00:16:54.405Z,102670.81
2018-05-06T00:19:21.804Z,102667.58
2018-05-06T00:21:49.224Z,102669.55
2018-05-06T00:24:16.635Z,102670.33
2018-05-06T00:26:44.045Z,102668.05
2018-05-06T00:29:11.468Z,102667.55
2018-05-06T00:31:38.884Z,102664.28
2018-05-06T00:34:06.300Z,102666.27
2018-05-06T00:36:33.728Z,102657.70
2018-05-06T00:39:01.141Z,102660.23
2018-05-06T00:41:28.556Z,102660.26
2018-05-06T00:43:56.013Z,102656.84
2018-05-06T00:46:23.495Z,102653.74
2018-05-06T00:48:50.828Z,102651.80
2018-05-06T00:51:18.246Z,102653.33
2018-05-06T00:53:45.651Z,102660.69
2018-05-06T00:56:13.057Z,102658.91
2018-05-06T00:58:40.469Z,102662.12
2018-05-06T01:01:07.882Z,102659.42
2018-05-06T01:03:35.296Z,102659.64
2018-05-06T01:06:02.704Z,102666.05
2018-05-06T01:08:30.127Z,102660.97
2018-05-06T01:10:57.536Z,102659.24
2018-05-06T01:13:24.956Z,102663.72
2018-05-06T01:15:52.385Z,102660.25
2018-05-06T01:18:19.809Z,102657.23
2018-05-06T01:20:47.208Z,102652.00
2018-05-06T01:23:14.632Z,102653.27
2018-05-06T01:25:42.043Z,102651.19
2018-05-06T01:28:09.457Z,102655.94
2018-05-06T01:30:36.863Z,102659.39
2018-05-06T01:33:04.280Z,102661.49
2018-05-06T01:35:31.684Z,102665.11
2018-05-06T01:37:59.132Z,102661.53
2018-05-06T01:40:26.533Z,102666.15
2018-05-06T01:42:53.945Z,102658.69
2018-05-06T01:45:21.357Z,102657.87
2018-05-06T01:47:48.769Z,102658.73
2018-05-06T01:50:16.176Z,102648.40
2018-05-06T01:52:43.596Z,102647.20
2018-05-06T01:55:11.012Z,102645.72
2018-05-06T01:57:38.429Z,102643.78
2018-05-06T02:00:05.837Z,102654.86
2018-05-06T02:02:33.253Z,102654.44
2018-05-06T02:05:00.664Z,102656.01
2018-05-06T02:07:28.069Z,102645.55
2018-05-06T02:09:55.477Z,102644.75
2018-05-06T02:12:22.922Z,102642.59
2018-05-06T02:14:50.323Z,102643.73
2018-05-06T02:17:17.724Z,102642.96
2018-05-06T02:19:45.144Z,102648.10
2018-05-06T02:22:12.547Z,102660.55
2018-05-06T02:24:39.960Z,102656.02
2018-05-06T02:27:07.368Z,102665.41
2018-05-06T02:29:34.792Z,102661.86
2018-05-06T02:32:02.205Z,102659.23
2018-05-06T02:34:29.617Z,102660.80
2018-05-06T02:36:57.025Z,102654.38
2018-05-06T02:39:24.439Z,102651.92
2018-05-06T02:41:51.848Z,102650.55
2018-05-06T02:44:19.271Z,102651.69
2018-05-06T02:46:46.667Z,102651.15
2018-05-06T02:49:14.076Z,102647.97
2018-05-06T02:51:41.484Z,102649.90
2018-05-06T02:54:08.908Z,102649.64
2018-05-06T02:56:36.312Z,102648.39
2018-05-06T02:59:03.724Z,102648.14
2018-05-06T03:01:31.133Z,102649.11
2018-05-06T03:03:58.546Z,102647.06
2018-05-06T03:06:25.952Z,102648.58
2018-05-06T03:08:53.370Z,102645.27
2018-05-06T03:11:20.775Z,102651.63
2018-05-06T03:13:48.188Z,102640.75
2018-05-06T03:16:15.691Z,102645.20
2018-05-06T03:18:43.175Z,102648.67
2018-05-06T03:21:10.507Z,102650.89
2018-05-06T03:23:37.924Z,102655.70
2018-05-06T03:26:05.328Z,102650.31
2018-05-06T03:28:32.748Z,102654.91
2018-05-06T03:31:00.147Z,102650.06
2018-05-06T03:33:27.567Z,102661.28
2018-05-06T03:35:54.977Z,102661.70
2018-05-06T03:38:22.388Z,102663.78
2018-05-06T03:40:49.799Z,102669.73
2018-05-06T03:43:17.208Z,102669.56
2018-05-06T03:45:44.649Z,102675.92
2018-05-06T03:48:12.088Z,102675.67
2018-05-06T03:50:39.489Z,102676.92
2018-05-06T03:53:06.893Z,102674.70
2018-05-06T03:55:34.336Z,102675.67
2018-05-06T03:58:13.656Z,102668.35
2018-05-06T04:00:42.656Z,102667.84
2018-05-06T04:03:10.065Z,102668.80
2018-05-06T04:05:37.484Z,102669.52
2018-05-06T04:08:04.886Z,102672.53
2018-05-06T04:10:33.125Z,102671.15
2018-05-06T04:13:00.522Z,102673.75
2018-05-06T04:15:27.945Z,102675.83
2018-05-06T04:17:55.348Z,102674.45
2018-05-06T04:20:22.764Z,102677.05
2018-05-06T04:22:50.209Z,102680.77
2018-05-06T04:25:17.616Z,102681.73
2018-05-06T04:27:45.021Z,102686.12
2018-05-06T04:30:12.437Z,102681.70
2018-05-06T04:32:39.848Z,102685.67
2018-05-06T04:35:07.272Z,102687.87
2018-05-06T04:37:34.674Z,102696.25
2018-05-06T04:40:02.088Z,102691.39
2018-05-06T04:42:29.515Z,102689.33
2018-05-06T04:44:56.924Z,102686.65
2018-05-06T04:47:24.332Z,102694.22
2018-05-06T04:49:51.740Z,102692.23
2018-05-06T04:52:19.148Z,102689.69
2018-05-06T04:54:46.582Z,102691.67
2018-05-06T04:57:13.979Z,102693.11
2018-05-06T04:59:41.391Z,102689.72
2018-05-06T05:02:08.796Z,102686.56
2018-05-06T05:04:36.208Z,102689.36
2018-05-06T05:07:03.616Z,102683.59
2018-05-06T05:09:31.063Z,102682.92
2018-05-06T05:11:58.443Z,102686.09
2018-05-06T05:14:25.859Z,102685.53
2018-05-06T05:16:53.264Z,102687.86
2018-05-06T05:19:20.691Z,102687.23
2018-05-06T05:21:48.095Z,102694.41
2018-05-06T05:24:15.521Z,102696.32
2018-05-06T05:26:42.927Z,102699.48
2018-05-06T05:29:10.324Z,102698.76
2018-05-06T05:31:37.735Z,102709.53
2018-05-06T05:34:05.142Z,102704.97
2018-05-06T05:36:32.557Z,102704.23
2018-05-06T05:38:59.962Z,102709.48
2018-05-06T05:41:27.377Z,102703.66
2018-05-06T05:43:54.785Z,102706.64
2018-05-06T05:46:22.192Z,102710.22
2018-05-06T05:48:49.595Z,102714.55
2018-05-06T05:51:17.012Z,102714.64
2018-05-06T05:53:44.417Z,102708.63
2018-05-06T05:56:11.832Z,102713.44
2018-05-06T05:58:39.236Z,102710.05
2018-05-06T06:01:06.654Z,102717.80
2018-05-06T06:03:34.063Z,102711.58
2018-05-06T06:06:01.471Z,102721.88
2018-05-06T06:08:28.880Z,102727.09
2018-05-06T06:10:56.292Z,102732.67
2018-05-06T06:13:23.688Z,102735.74
2018-05-06T06:15:51.101Z,102735.79
2018-05-06T06:18:18.511Z,102740.16
2018-05-06T06:20:45.923Z,102739.27
2018-05-06T06:23:13.320Z,102735.91
2018-05-06T06:25:40.768Z,102738.89
2018-05-06T06:28:08.201Z,102739.51
2018-05-06T06:30:35.613Z,102741.41
2018-05-06T06:33:03.086Z,102743.58
2018-05-06T06:35:30.438Z,102748.43
2018-05-06T06:37:57.848Z,102738.89
2018-05-06T06:40:25.255Z,102741.63
2018-05-06T06:42:52.668Z,102732.61
2018-05-06T06:45:20.075Z,102736.44
2018-05-06T06:47:47.484Z,102743.27
2018-05-06T06:50:14.900Z,102745.03
2018-05-06T06:52:42.308Z,102748.92
2018-05-06T06:55:09.721Z,102741.30
2018-05-06T06:57:37.199Z,102740.15
2018-05-06T07:00:04.560Z,102732.67
2018-05-06T07:02:31.966Z,102729.73
2018-05-06T07:04:59.367Z,102733.23
2018-05-06T07:07:26.785Z,102729.31
2018-05-06T07:09:54.189Z,102728.78
2018-05-06T07:12:21.601Z,102719.73
2018-05-06T07:14:49.020Z,102719.41
2018-05-06T07:17:16.441Z,102712.45
2018-05-06T07:19:43.844Z,102722.78
2018-05-06T07:22:11.273Z,102716.27
2018-05-06T07:24:38.669Z,102715.34
2018-05-06T07:27:06.101Z,102706.95
2018-05-06T07:29:33.512Z,102715.41
2018-05-06T07:32:00.920Z,102711.98
2018-05-06T07:34:28.323Z,102700.30
2018-05-06T07:36:55.745Z,102699.56
2018-05-06T07:39:23.149Z,102696.30
2018-05-06T07:41:50.555Z,102697.27
2018-05-06T07:44:17.976Z,102695.78
2018-05-06T07:46:45.375Z,102701.59
2018-05-06T07:49:12.784Z,102711.76
2018-05-06T07:51:40.200Z,102713.95
2018-05-06T07:54:07.606Z,102713.63
2018-05-06T07:56:35.024Z,102719.14
2018-05-06T07:59:02.435Z,102720.64
2018-05-06T08:01:29.861Z,102719.23
2018-05-06T08:03:57.278Z,102725.70
2018-05-06T08:06:24.692Z,102719.45
2018-05-06T08:08:52.115Z,102721.63
2018-05-06T08:11:19.540Z,102722.31
2018-05-06T08:13:46.951Z,102718.67
2018-05-06T08:16:14.406Z,102723.58
2018-05-06T08:18:41.787Z,102724.98
2018-05-06T08:21:09.208Z,102720.83
2018-05-06T08:23:36.615Z,102715.42
2018-05-06T08:26:04.051Z,102714.80
2018-05-06T08:28:31.462Z,102717.65
2018-05-06T08:30:58.884Z,102719.45
2018-05-06T08:33:26.300Z,102715.25
2018-05-06T08:35:53.725Z,102718.33
2018-05-06T08:38:21.172Z,102715.02
2018-05-06T08:40:48.584Z,102713.42
2018-05-06T08:43:16.001Z,102709.16
2018-05-06T08:45:43.494Z,102718.82
2018-05-06T08:48:10.841Z,102713.80
2018-05-06T08:50:38.256Z,102717.78
2018-05-06T08:53:05.680Z,102706.14
2018-05-06T08:55:33.096Z,102704.87
2018-05-06T08:58:00.508Z,102696.95
2018-05-06T09:00:27.928Z,102696.81
2018-05-06T09:02:55.349Z,102699.63
2018-05-06T09:05:22.769Z,102694.57
2018-05-06T09:07:50.181Z,102700.59
2018-05-06T09:10:17.596Z,102708.67
2018-05-06T09:12:45.021Z,102700.55
2018-05-06T09:15:12.433Z,102697.81
2018-05-06T09:17:39.860Z,102697.73
2018-05-06T09:20:07.277Z,102684.53
2018-05-06T09:22:34.701Z,102695.60
2018-05-06T09:25:02.120Z,102693.98
2018-05-06T09:27:29.536Z,102693.59
2018-05-06T09:29:56.952Z,102697.40
2018-05-06T09:32:24.459Z,102685.63
2018-05-06T09:34:51.792Z,102690.67
2018-05-06T09:37:19.240Z,102688.06
2018-05-06T09:39:46.655Z,102684.89
2018-05-06T09:42:14.067Z,102686.36
2018-05-06T09:44:41.484Z,102687.78
2018-05-06T09:47:08.906Z,102681.29
2018-05-06T09:49:36.317Z,102688.22
2018-05-06T09:52:03.744Z,102683.77
2018-05-06T09:54:31.156Z,102686.02
2018-05-06T09:56:58.584Z,102682.16
2018-05-06T09:59:26.133Z,102681.14
2018-05-06T10:01:53.551Z,102678.89
2018-05-06T10:04:20.968Z,102671.50
2018-05-06T10:06:48.417Z,102670.22
2018-05-06T10:09:15.832Z,102670.17
2018-05-06T10:11:43.256Z,102667.03
2018-05-06T10:14:10.706Z,102676.95
2018-05-06T10:16:38.124Z,102667.84
2018-05-06T10:19:05.545Z,102670.81
2018-05-06T10:21:32.956Z,102668.13
2018-05-06T10:24:00.380Z,102668.70
2018-05-06T10:26:27.811Z,102660.22
2018-05-06T10:28:55.307Z,102664.00
2018-05-06T10:31:22.737Z,102653.56
2018-05-06T10:33:50.173Z,102660.67
2018-05-06T10:36:17.605Z,102660.40
2018-05-06T10:38:45.025Z,102654.27
2018-05-06T10:41:12.480Z,102658.27
2018-05-06T10:43:39.903Z,102653.69
2018-05-06T10:46:07.317Z,102650.05
2018-05-06T10:48:34.773Z,102653.10
2018-05-06T10:51:02.188Z,102652.25
2018-05-06T10:53:29.619Z,102646.56
2018-05-06T10:55:57.042Z,102649.86
2018-05-06T10:58:24.464Z,102639.87
2018-05-06T11:00:51.890Z,102639.64
2018-05-06T11:03:19.327Z,102627.98
2018-05-06T11:05:46.765Z,102629.84
2018-05-06T11:08:14.240Z,102631.03
2018-05-06T11:10:41.656Z,102624.17
2018-05-06T11:13:09.149Z,102622.73
2018-05-06T11:15:36.589Z,102621.72
2018-05-06T11:18:04.018Z,102622.91
2018-05-06T11:20:32.630Z,102618.89
2018-05-06T11:23:00.064Z,102623.05
2018-05-06T11:25:27.472Z,102616.22
2018-05-06T11:27:54.901Z,102613.77
2018-05-06T11:30:22.312Z,102615.25
2018-05-06T11:32:49.736Z,102609.06
2018-05-06T11:35:17.188Z,102601.44
2018-05-06T11:37:44.620Z,102605.91
2018-05-06T11:40:12.045Z,102593.92
2018-05-06T11:42:39.480Z,102594.53
2018-05-06T11:45:06.896Z,102597.33
2018-05-06T11:47:34.317Z,102594.41
2018-05-06T11:50:01.737Z,102586.48
2018-05-06T11:52:29.144Z,102577.09
2018-05-06T11:54:56.569Z,102576.81
2018-05-06T11:57:23.988Z,102574.81
2018-05-06T11:59:51.420Z,102577.92
2018-05-06T12:02:18.870Z,102579.19
2018-05-06T12:04:46.260Z,102572.89
2018-05-06T12:07:13.667Z,102572.11
2018-05-06T12:09:41.087Z,102570.81
2018-05-06T12:12:08.504Z,102576.11
2018-05-06T12:14:35.931Z,102565.52
2018-05-06T12:17:03.359Z,102557.00
2018-05-06T12:19:30.792Z,102556.73
2018-05-06T12:21:58.273Z,102552.81
2018-05-06T12:24:25.632Z,102548.37
2018-05-06T12:26:53.043Z,102545.42
2018-05-06T12:29:20.510Z,102541.59
2018-05-06T12:31:47.924Z,102546.89
2018-05-06T12:34:15.349Z,102539.90
2018-05-06T12:36:42.760Z,102538.06
2018-05-06T12:39:10.189Z,102529.88
2018-05-06T12:41:37.603Z,102526.94
2018-05-06T12:44:05.035Z,102524.48
2018-05-06T12:46:32.453Z,102517.91
2018-05-06T12:48:59.880Z,102521.09
2018-05-06T12:51:27.296Z,102511.31
2018-05-06T12:53:54.720Z,102511.34
2018-05-06T12:56:22.159Z,102512.30
2018-05-06T12:58:49.584Z,102508.55
2018-05-06T13:01:17.004Z,102503.77
2018-05-06T13:03:44.441Z,102497.73
2018-05-06T13:06:11.848Z,102504.02
2018-05-06T13:08:39.267Z,102500.52
2018-05-06T13:11:06.700Z,102494.14
2018-05-06T13:13:34.127Z,102492.92
2018-05-06T13:16:01.540Z,102490.20
2018-05-06T13:18:28.960Z,102494.00
2018-05-06T13:20:56.381Z,102493.39
2018-05-06T13:23:23.804Z,102495.43
2018-05-06T13:25:51.221Z,102483.98
2018-05-06T13:28:18.656Z,102483.17
2018-05-06T13:30:46.076Z,102481.24
2018-05-06T13:33:13.488Z,102476.83
2018-05-06T13:35:40.931Z,102469.86
2018-05-06T13:38:08.344Z,102472.14
2018-05-06T13:40:35.765Z,102466.05
2018-05-06T13:43:03.184Z,102473.73
2018-05-06T13:45:30.607Z,102466.63
2018-05-06T13:47:58.016Z,102458.65
2018-05-06T13:50:25.440Z,102459.84
2018-05-06T13:52:52.849Z,102454.69
2018-05-06T13:55:20.273Z,102449.08
2018-05-06T13:57:47.682Z,102448.84
2018-05-06T14:00:15.108Z,102452.77
2018-05-06T14:02:42.612Z,102442.27
2018-05-06T14:05:09.956Z,102437.55
2018-05-06T14:07:37.378Z,102436.18
2018-05-06T14:10:04.804Z,102432.34
2018-05-06T14:12:32.257Z,102437.98
2018-05-06T14:14:59.676Z,102431.12
2018-05-06T14:17:27.092Z,102429.77
2018-05-06T14:19:54.518Z,102417.02
2018-05-06T14:22:21.932Z,102417.99
2018-05-06T14:24:49.360Z,102418.58
2018-05-06T14:27:16.776Z,102411.67
2018-05-06T14:29:44.200Z,102419.97
2018-05-06T14:32:11.604Z,102415.25
2018-05-06T14:34:39.033Z,102423.52
2018-05-06T14:37:06.445Z,102420.20
2018-05-06T14:39:33.892Z,102416.31
2018-05-06T14:42:01.288Z,102415.50
2018-05-06T14:44:28.708Z,102411.94
2018-05-06T14:47:07.904Z,102414.36
2018-05-06T14:49:35.338Z,102409.09
2018-05-06T14:52:02.764Z,102412.17
2018-05-06T14:54:30.200Z,102414.11
2018-05-06T14:56:57.625Z,102400.88
2018-05-06T14:59:25.036Z,102397.98
2018-05-06T15:01:52.461Z,102401.37
2018-05-06T15:04:19.872Z,102407.52
2018-05-06T15:06:47.297Z,102398.04
2018-05-06T15:09:14.713Z,102387.70
2018-05-06T15:11:42.168Z,102394.64
2018-05-06T15:14:09.575Z,102390.56
2018-05-06T15:16:37.004Z,102381.63
2018-05-06T15:19:04.417Z,102383.35
2018-05-06T15:21:31.840Z,102382.36
2018-05-06T15:23:59.252Z,102383.03
2018-05-06T15:26:26.677Z,102385.50
2018-05-06T15:28:54.097Z,102382.71
2018-05-06T15:31:21.517Z,102375.61
2018-05-06T15:33:48.924Z,102378.17
2018-05-06T15:36:16.357Z,102377.84
2018-05-06T15:38:43.765Z,102378.91
2018-05-06T15:41:11.284Z,102372.55
2018-05-06T15:43:38.608Z,102369.19
2018-05-06T15:46:06.027Z,102369.70
2018-05-06T15:48:33.440Z,102377.31
2018-05-06T15:51:00.881Z,102369.63
2018-05-06T15:53:28.296Z,102359.63
2018-05-06T15:55:55.719Z,102350.96
2018-05-06T15:58:23.132Z,102351.84
2018-05-06T16:00:50.544Z,102355.82
2018-05-06T16:03:29.765Z,102350.24
2018-05-06T16:05:57.233Z,102347.06
2018-05-06T16:08:24.643Z,102340.40
2018-05-06T16:10:52.056Z,102342.72
2018-05-06T16:13:19.500Z,102340.77
2018-05-06T16:15:46.922Z,102342.84
2018-05-06T16:18:14.335Z,102344.87
2018-05-06T16:20:41.781Z,102343.70
2018-05-06T16:23:09.218Z,102340.55
2018-05-06T16:25:36.626Z,102340.94
2018-05-06T16:28:04.044Z,102336.69
2018-05-06T16:30:31.470Z,102334.06
2018-05-06T16:32:58.887Z,102336.71
2018-05-06T16:35:26.312Z,102326.39
2018-05-06T16:37:53.752Z,102323.34
2018-05-06T16:40:21.163Z,102325.18
2018-05-06T16:42:48.610Z,102321.75
2018-05-06T16:45:16.023Z,102322.34
2018-05-06T16:47:43.435Z,102325.23
2018-05-06T16:50:10.860Z,102317.98
2018-05-06T16:52:38.290Z,102328.13
2018-05-06T16:55:05.700Z,102317.20
2018-05-06T16:57:33.118Z,102319.42
2018-05-06T17:00:00.536Z,102325.08
2018-05-06T17:02:27.994Z,102327.76
2018-05-06T17:04:55.412Z,102317.63
2018-05-06T17:07:22.834Z,102318.00
2018-05-06T17:09:50.300Z,102324.72
2018-05-06T17:12:17.730Z,102321.68
2018-05-06T17:14:45.141Z,102322.69
2018-05-06T17:17:12.557Z,102314.20
2018-05-06T17:19:39.984Z,102316.22
2018-05-06T17:22:07.424Z,102317.64
2018-05-06T17:24:34.833Z,102319.25
2018-05-06T17:27:02.256Z,102315.02
2018-05-06T17:29:29.697Z,102315.61
2018-05-06T17:31:57.158Z,102313.76
2018-05-06T17:34:24.606Z,102320.03
2018-05-06T17:36:52.011Z,102311.94
2018-05-06T17:39:19.443Z,102314.16
2018-05-06T17:41:46.865Z,102316.16
2018-05-06T17:44:14.272Z,102317.16
2018-05-06T17:46:41.688Z,102318.55
2018-05-06T17:49:09.104Z,102316.91
2018-05-06T17:51:36.528Z,102319.34
2018-05-06T17:54:03.942Z,102318.33
2018-05-06T17:56:31.381Z,102317.91
2018-05-06T17:58:58.792Z,102325.33
2018-05-06T18:01:26.217Z,102325.33
2018-05-06T18:03:53.645Z,102320.08
2018-05-06T18:06:21.061Z,102318.25
2018-05-06T18:08:48.490Z,102321.05
2018-05-06T18:11:15.911Z,102319.25
2018-05-06T18:13:43.319Z,102323.69
2018-05-06T18:16:10.773Z,102321.84
2018-05-06T18:18:38.185Z,102321.39
2018-05-06T18:21:05.608Z,102322.96
2018-05-06T18:23:33.019Z,102321.48
2018-05-06T18:26:00.441Z,102322.81
2018-05-06T18:28:27.852Z,102318.47
2018-05-06T18:30:55.279Z,102318.41
2018-05-06T18:33:22.688Z,102322.63
2018-05-06T18:35:50.116Z,102318.19
2018-05-06T18:38:17.529Z,102321.78
2018-05-06T18:40:44.940Z,102324.38
2018-05-06T18:43:12.360Z,102317.14
2018-05-06T18:45:39.781Z,102319.97
2018-05-06T18:48:07.211Z,102321.13
2018-05-06T18:50:34.631Z,102324.27
2018-05-06T18:53:02.055Z,102321.75
2018-05-06T18:55:29.465Z,102324.55
2018-05-06T18:57:56.909Z,102328.35
2018-05-06T19:00:24.325Z,102332.16
2018-05-06T19:02:51.748Z,102330.03
2018-05-06T19:05:19.162Z,102332.41
2018-05-06T19:07:46.580Z,102335.16
2018-05-06T19:10:13.997Z,102340.10
2018-05-06T19:12:41.416Z,102345.70
2018-05-06T19:15:08.828Z,102337.70
2018-05-06T19:17:36.311Z,102342.20
2018-05-06T19:20:03.680Z,102343.14
2018-05-06T19:22:31.108Z,102341.95
2018-05-06T19:24:58.524Z,102337.25
2018-05-06T19:27:25.948Z,102338.39
2018-05-06T19:29:53.380Z,102346.36
2018-05-06T19:32:20.809Z,102350.28
2018-05-06T19:34:48.229Z,102345.02
2018-05-06T19:37:15.650Z,102343.95
2018-05-06T19:39:43.141Z,102347.48
2018-05-06T19:42:10.480Z,102348.36
2018-05-06T19:44:37.901Z,102346.02
2018-05-06T19:47:05.323Z,102344.27
2018-05-06T19:49:32.740Z,102348.11
2018-05-06T19:52:00.160Z,102344.98
2018-05-06T19:54:27.596Z,102348.80
2018-05-06T19:56:55.002Z,102351.79
2018-05-06T19:59:22.424Z,102353.44
2018-05-06T20:01:49.838Z,102346.90
2018-05-06T20:04:17.252Z,102349.57
2018-05-06T20:06:44.668Z,102348.02
2018-05-06T20:09:12.105Z,102350.23
2018-05-06T20:11:39.511Z,102349.88
2018-05-06T20:14:06.932Z,102349.73
2018-05-06T20:16:34.348Z,102347.11
2018-05-06T20:19:01.770Z,102350.28
2018-05-06T20:21:29.273Z,102344.87
2018-05-06T20:23:56.602Z,102344.63
2018-05-06T20:26:24.022Z,102347.55
2018-05-06T20:28:51.432Z,102355.91
2018-05-06T20:31:18.861Z,102354.05
2018-05-06T20:33:46.269Z,102357.02
2018-05-06T20:36:13.697Z,102355.55
2018-05-06T20:38:41.123Z,102351.08
2018-05-06T20:41:08.539Z,102353.08
2018-05-06T20:43:35.957Z,102353.88
2018-05-06T20:46:03.384Z,102352.64
2018-05-06T20:48:30.802Z,102346.50
2018-05-06T20:50:58.213Z,102351.33
2018-05-06T20:53:25.623Z,102355.78
2018-05-06T20:55:53.045Z,102348.02
2018-05-06T20:58:20.508Z,102344.86
2018-05-06T21:00:47.919Z,102342.54
2018-05-06T21:03:15.332Z,102340.66
2018-05-06T21:05:42.769Z,102336.84
2018-05-06T21:08:10.176Z,102343.17
2018-05-06T21:10:37.609Z,102346.67
2018-05-06T21:13:05.029Z,102340.38
2018-05-06T21:15:32.440Z,102338.11
2018-05-06T21:17:59.859Z,102338.49
2018-05-06T21:20:27.268Z,102340.62
2018-05-06T21:22:54.695Z,102341.41
2018-05-06T21:25:22.135Z,102345.67
2018-05-06T21:27:49.553Z,102347.84
2018-05-06T21:30:16.972Z,102355.31
2018-05-06T21:32:44.385Z,102358.99
2018-05-06T21:35:11.799Z,102353.85
2018-05-06T21:37:39.296Z,102352.33
2018-05-06T21:40:06.663Z,102352.23
2018-05-06T21:42:34.076Z,102353.88
2018-05-06T21:45:01.519Z,102352.17
2018-05-06T21:47:28.891Z,102356.09
2018-05-06T21:49:56.328Z,102347.90
2018-05-06T21:52:23.719Z,102348.35
2018-05-06T21:54:51.133Z,102347.27
2018-05-06T21:57:18.547Z,102343.78
2018-05-06T21:59:45.943Z,102342.30
2018-05-06T22:02:13.376Z,102342.16
2018-05-06T22:04:40.791Z,102339.59
2018-05-06T22:07:08.200Z,102339.86
2018-05-06T22:09:35.615Z,102342.28
2018-05-06T22:12:03.015Z,102342.16
2018-05-06T22:14:30.432Z,102345.33
2018-05-06T22:16:57.843Z,102344.42
2018-05-06T22:19:25.288Z,102343.81
2018-05-06T22:21:52.673Z,102341.97
2018-05-06T22:24:20.089Z,102340.95
2018-05-06T22:26:47.495Z,102338.54
2018-05-06T22:29:14.915Z,102338.66
2018-05-06T22:31:42.322Z,102339.10
2018-05-06T22:34:09.762Z,102338.05
2018-05-06T22:36:37.136Z,102338.08
2018-05-06T22:39:04.556Z,102339.08
2018-05-06T22:41:32.027Z,102334.85
2018-05-06T22:43:59.425Z,102340.30
2018-05-06T22:46:26.826Z,102334.26
2018-05-06T22:48:54.236Z,102332.88
2018-05-06T22:51:21.660Z,102331.09
2018-05-06T22:53:49.064Z,102336.25
2018-05-06T22:56:16.477Z,102333.16
2018-05-06T22:58:43.901Z,102337.45
2018-05-06T23:01:11.296Z,102346.25
2018-05-06T23:03:38.716Z,102341.35
2018-05-06T23:06:06.120Z,102333.08
2018-05-06T23:08:33.544Z,102339.77
2018-05-06T23:11:00.947Z,102341.03
2018-05-06T23:13:28.358Z,102334.31
2018-05-06T23:15:55.777Z,102339.38
2018-05-06T23:18:23.187Z,102330.80
2018-05-06T23:20:50.626Z,102338.12
2018-05-06T23:23:18.004Z,102332.96
2018-05-06T23:25:45.428Z,102332.25
2018-05-06T23:28:12.836Z,102343.07
2018-05-06T23:30:40.267Z,102342.09
2018-05-06T23:33:07.675Z,102344.24
2018-05-06T23:35:35.127Z,102342.66
2018-05-06T23:38:02.504Z,102344.17
2018-05-06T23:40:29.912Z,102346.28
2018-05-06T23:42:57.321Z,102341.45
2018-05-06T23:45:24.739Z,102344.89
2018-05-06T23:47:52.148Z,102341.05
2018-05-06T23:50:19.564Z,102339.65
2018-05-06T23:52:46.964Z,102344.66
2018-05-06T23:55:14.438Z,102346.05
2018-05-06T23:57:41.817Z,102337.11
